sensor_id;sensor_type;location;lat;lon;timestamp;P1;durP1;ratioP1;P2;durP2;ratioP2
787;SDS011;16074;42.708;23.312;2022-07-17T00:01:08;6.07;;;5.77;;
787;SDS011;16074;42.708;23.312;2022-07-17T00:03:37;6.87;;;6.37;;
787;SDS011;16074;42.708;23.312;2022-07-17T00:06:05;6.33;;;5.83;;
787;SDS011;16074;42.708;23.312;2022-07-17T00:08:34;6.80;;;6.30;;
787;SDS011;16074;42.708;23.312;2022-07-17T00:11:02;6.30;;;5.90;;
787;SDS011;16074;42.708;23.312;2022-07-17T00:13:30;5.90;;;5.50;;
787;SDS011;16074;42.708;23.312;2022-07-17T00:16:00;6.67;;;6.27;;
787;SDS011;16074;42.708;23.312;2022-07-17T00:18:28;6.77;;;6.40;;
787;SDS011;16074;42.708;23.312;2022-07-17T00:20:57;6.83;;;6.33;;
787;SDS011;16074;42.708;23.312;2022-07-17T00:23:25;6.27;;;5.90;;
787;SDS011;16074;42.708;23.312;2022-07-17T00:25:53;5.70;;;5.20;;
787;SDS011;16074;42.708;23.312;2022-07-17T00:28:21;6.57;;;5.80;;
787;SDS011;16074;42.708;23.312;2022-07-17T00:30:49;5.67;;;5.37;;
787;SDS011;16074;42.708;23.312;2022-07-17T00:33:19;6.10;;;5.70;;
787;SDS011;16074;42.708;23.312;2022-07-17T00:35:47;7.00;;;6.57;;
787;SDS011;16074;42.708;23.312;2022-07-17T00:38:15;6.10;;;5.80;;
787;SDS011;16074;42.708;23.312;2022-07-17T00:40:44;6.10;;;5.80;;
787;SDS011;16074;42.708;23.312;2022-07-17T00:43:13;5.97;;;5.57;;
787;SDS011;16074;42.708;23.312;2022-07-17T00:45:42;5.90;;;5.50;;
787;SDS011;16074;42.708;23.312;2022-07-17T00:48:10;6.33;;;5.83;;
787;SDS011;16074;42.708;23.312;2022-07-17T00:50:41;6.07;;;5.63;;
787;SDS011;16074;42.708;23.312;2022-07-17T00:53:09;5.40;;;5.10;;
787;SDS011;16074;42.708;23.312;2022-07-17T00:55:38;5.90;;;5.40;;
787;SDS011;16074;42.708;23.312;2022-07-17T00:58:10;6.37;;;5.87;;
787;SDS011;16074;42.708;23.312;2022-07-17T01:00:40;6.60;;;6.10;;
787;SDS011;16074;42.708;23.312;2022-07-17T01:03:09;7.07;;;6.37;;
787;SDS011;16074;42.708;23.312;2022-07-17T01:05:37;5.40;;;5.00;;
787;SDS011;16074;42.708;23.312;2022-07-17T01:08:07;5.83;;;5.40;;
787;SDS011;16074;42.708;23.312;2022-07-17T01:10:36;6.67;;;5.97;;
787;SDS011;16074;42.708;23.312;2022-07-17T01:13:05;6.27;;;5.73;;
787;SDS011;16074;42.708;23.312;2022-07-17T01:15:35;5.73;;;5.33;;
787;SDS011;16074;42.708;23.312;2022-07-17T01:18:05;5.40;;;5.00;;
787;SDS011;16074;42.708;23.312;2022-07-17T01:20:35;6.03;;;5.63;;
787;SDS011;16074;42.708;23.312;2022-07-17T01:23:05;5.87;;;5.47;;
787;SDS011;16074;42.708;23.312;2022-07-17T01:25:34;5.43;;;5.03;;
787;SDS011;16074;42.708;23.312;2022-07-17T01:28:03;5.60;;;5.20;;
787;SDS011;16074;42.708;23.312;2022-07-17T01:30:32;5.67;;;5.37;;
787;SDS011;16074;42.708;23.312;2022-07-17T01:33:02;5.63;;;5.30;;
787;SDS011;16074;42.708;23.312;2022-07-17T01:35:31;5.63;;;5.13;;
787;SDS011;16074;42.708;23.312;2022-07-17T01:38:00;6.00;;;5.50;;
787;SDS011;16074;42.708;23.312;2022-07-17T01:40:30;5.43;;;5.13;;
787;SDS011;16074;42.708;23.312;2022-07-17T01:42:58;5.87;;;5.40;;
787;SDS011;16074;42.708;23.312;2022-07-17T01:45:26;6.57;;;6.17;;
787;SDS011;16074;42.708;23.312;2022-07-17T01:47:55;6.37;;;5.77;;
787;SDS011;16074;42.708;23.312;2022-07-17T01:50:23;5.63;;;5.13;;
787;SDS011;16074;42.708;23.312;2022-07-17T01:52:51;5.30;;;4.80;;
787;SDS011;16074;42.708;23.312;2022-07-17T01:55:19;5.23;;;4.80;;
787;SDS011;16074;42.708;23.312;2022-07-17T01:57:49;7.00;;;5.57;;
787;SDS011;16074;42.708;23.312;2022-07-17T02:00:18;5.43;;;5.13;;
787;SDS011;16074;42.708;23.312;2022-07-17T02:02:49;5.27;;;4.97;;
787;SDS011;16074;42.708;23.312;2022-07-17T02:05:17;6.20;;;5.60;;
787;SDS011;16074;42.708;23.312;2022-07-17T02:07:46;5.23;;;4.83;;
787;SDS011;16074;42.708;23.312;2022-07-17T02:10:14;5.63;;;5.20;;
787;SDS011;16074;42.708;23.312;2022-07-17T02:12:43;5.70;;;5.13;;
787;SDS011;16074;42.708;23.312;2022-07-17T02:15:13;5.20;;;4.80;;
787;SDS011;16074;42.708;23.312;2022-07-17T02:17:42;5.30;;;5.00;;
787;SDS011;16074;42.708;23.312;2022-07-17T02:20:10;6.50;;;6.00;;
787;SDS011;16074;42.708;23.312;2022-07-17T02:22:39;4.93;;;4.63;;
787;SDS011;16074;42.708;23.312;2022-07-17T02:25:09;6.17;;;5.63;;
787;SDS011;16074;42.708;23.312;2022-07-17T02:27:38;5.77;;;5.37;;
787;SDS011;16074;42.708;23.312;2022-07-17T02:30:07;6.10;;;5.60;;
787;SDS011;16074;42.708;23.312;2022-07-17T02:32:39;5.60;;;5.23;;
787;SDS011;16074;42.708;23.312;2022-07-17T02:35:09;5.53;;;5.13;;
787;SDS011;16074;42.708;23.312;2022-07-17T02:37:38;5.60;;;4.93;;
787;SDS011;16074;42.708;23.312;2022-07-17T02:40:09;5.57;;;5.27;;
787;SDS011;16074;42.708;23.312;2022-07-17T02:42:38;6.00;;;5.60;;
787;SDS011;16074;42.708;23.312;2022-07-17T02:45:07;5.80;;;5.40;;
787;SDS011;16074;42.708;23.312;2022-07-17T02:47:36;5.80;;;5.40;;
787;SDS011;16074;42.708;23.312;2022-07-17T02:50:07;5.90;;;5.50;;
787;SDS011;16074;42.708;23.312;2022-07-17T02:52:37;5.63;;;5.23;;
787;SDS011;16074;42.708;23.312;2022-07-17T02:55:05;5.33;;;5.03;;
787;SDS011;16074;42.708;23.312;2022-07-17T02:57:35;5.60;;;5.20;;
787;SDS011;16074;42.708;23.312;2022-07-17T03:00:04;5.63;;;5.13;;
787;SDS011;16074;42.708;23.312;2022-07-17T03:02:35;8.50;;;5.57;;
787;SDS011;16074;42.708;23.312;2022-07-17T03:05:03;5.87;;;5.50;;
787;SDS011;16074;42.708;23.312;2022-07-17T03:07:33;5.80;;;5.30;;
787;SDS011;16074;42.708;23.312;2022-07-17T03:10:02;5.67;;;5.27;;
787;SDS011;16074;42.708;23.312;2022-07-17T03:12:32;5.77;;;5.37;;
787;SDS011;16074;42.708;23.312;2022-07-17T03:15:00;5.43;;;5.13;;
787;SDS011;16074;42.708;23.312;2022-07-17T03:17:28;5.10;;;4.80;;
787;SDS011;16074;42.708;23.312;2022-07-17T03:19:56;5.83;;;5.37;;
787;SDS011;16074;42.708;23.312;2022-07-17T03:22:25;5.83;;;5.33;;
787;SDS011;16074;42.708;23.312;2022-07-17T03:24:54;5.83;;;5.50;;
787;SDS011;16074;42.708;23.312;2022-07-17T03:27:23;5.70;;;5.40;;
787;SDS011;16074;42.708;23.312;2022-07-17T03:29:52;5.80;;;5.30;;
787;SDS011;16074;42.708;23.312;2022-07-17T03:32:21;5.30;;;4.90;;
787;SDS011;16074;42.708;23.312;2022-07-17T03:34:49;5.37;;;4.97;;
787;SDS011;16074;42.708;23.312;2022-07-17T03:37:17;5.50;;;5.10;;
787;SDS011;16074;42.708;23.312;2022-07-17T03:39:46;5.97;;;5.47;;
787;SDS011;16074;42.708;23.312;2022-07-17T03:42:15;6.03;;;5.53;;
787;SDS011;16074;42.708;23.312;2022-07-17T03:44:44;5.60;;;5.30;;
787;SDS011;16074;42.708;23.312;2022-07-17T03:47:12;8.93;;;5.70;;
787;SDS011;16074;42.708;23.312;2022-07-17T03:49:41;6.60;;;6.00;;
787;SDS011;16074;42.708;23.312;2022-07-17T03:52:09;6.80;;;6.30;;
787;SDS011;16074;42.708;23.312;2022-07-17T03:54:37;5.80;;;5.50;;
787;SDS011;16074;42.708;23.312;2022-07-17T03:57:05;6.20;;;5.80;;
787;SDS011;16074;42.708;23.312;2022-07-17T03:59:35;6.27;;;5.60;;
787;SDS011;16074;42.708;23.312;2022-07-17T04:02:03;6.40;;;5.90;;
787;SDS011;16074;42.708;23.312;2022-07-17T04:04:31;6.33;;;5.73;;
787;SDS011;16074;42.708;23.312;2022-07-17T04:07:00;6.80;;;6.30;;
787;SDS011;16074;42.708;23.312;2022-07-17T04:09:28;7.20;;;5.97;;
787;SDS011;16074;42.708;23.312;2022-07-17T04:11:56;7.00;;;6.43;;
787;SDS011;16074;42.708;23.312;2022-07-17T04:14:24;6.70;;;6.30;;
787;SDS011;16074;42.708;23.312;2022-07-17T04:16:54;6.53;;;5.87;;
787;SDS011;16074;42.708;23.312;2022-07-17T04:19:22;5.50;;;5.10;;
787;SDS011;16074;42.708;23.312;2022-07-17T04:21:51;6.93;;;6.30;;
787;SDS011;16074;42.708;23.312;2022-07-17T04:24:19;6.40;;;5.80;;
787;SDS011;16074;42.708;23.312;2022-07-17T04:26:47;7.10;;;6.40;;
787;SDS011;16074;42.708;23.312;2022-07-17T04:29:15;6.33;;;5.93;;
787;SDS011;16074;42.708;23.312;2022-07-17T04:31:43;7.27;;;5.53;;
787;SDS011;16074;42.708;23.312;2022-07-17T04:34:13;6.53;;;6.00;;
787;SDS011;16074;42.708;23.312;2022-07-17T04:36:41;6.33;;;5.90;;
787;SDS011;16074;42.708;23.312;2022-07-17T04:39:10;5.93;;;5.43;;
787;SDS011;16074;42.708;23.312;2022-07-17T04:41:38;5.77;;;5.07;;
787;SDS011;16074;42.708;23.312;2022-07-17T04:44:06;6.53;;;5.93;;
787;SDS011;16074;42.708;23.312;2022-07-17T04:46:34;5.80;;;5.50;;
787;SDS011;16074;42.708;23.312;2022-07-17T04:49:03;6.37;;;5.90;;
787;SDS011;16074;42.708;23.312;2022-07-17T04:51:32;6.07;;;5.67;;
787;SDS011;16074;42.708;23.312;2022-07-17T04:54:01;6.17;;;5.77;;
787;SDS011;16074;42.708;23.312;2022-07-17T04:56:29;5.80;;;5.40;;
787;SDS011;16074;42.708;23.312;2022-07-17T04:58:57;4.67;;;4.47;;
787;SDS011;16074;42.708;23.312;2022-07-17T05:01:26;6.03;;;5.63;;
787;SDS011;16074;42.708;23.312;2022-07-17T05:03:54;6.50;;;5.90;;
787;SDS011;16074;42.708;23.312;2022-07-17T05:06:23;6.50;;;6.10;;
787;SDS011;16074;42.708;23.312;2022-07-17T05:08:52;5.67;;;5.20;;
787;SDS011;16074;42.708;23.312;2022-07-17T05:11:20;6.10;;;5.60;;
787;SDS011;16074;42.708;23.312;2022-07-17T05:13:49;6.50;;;6.00;;
787;SDS011;16074;42.708;23.312;2022-07-17T05:16:17;6.30;;;5.67;;
787;SDS011;16074;42.708;23.312;2022-07-17T05:18:45;5.63;;;5.20;;
787;SDS011;16074;42.708;23.312;2022-07-17T05:21:14;6.20;;;5.60;;
787;SDS011;16074;42.708;23.312;2022-07-17T05:23:42;5.20;;;4.80;;
787;SDS011;16074;42.708;23.312;2022-07-17T05:26:12;6.17;;;5.67;;
787;SDS011;16074;42.708;23.312;2022-07-17T05:28:40;6.47;;;6.00;;
787;SDS011;16074;42.708;23.312;2022-07-17T05:31:08;7.07;;;6.47;;
787;SDS011;16074;42.708;23.312;2022-07-17T05:33:36;5.63;;;4.93;;
787;SDS011;16074;42.708;23.312;2022-07-17T05:36:05;9.03;;;5.20;;
787;SDS011;16074;42.708;23.312;2022-07-17T05:38:33;5.67;;;5.17;;
787;SDS011;16074;42.708;23.312;2022-07-17T05:41:01;7.20;;;4.90;;
787;SDS011;16074;42.708;23.312;2022-07-17T05:43:31;6.33;;;5.70;;
787;SDS011;16074;42.708;23.312;2022-07-17T05:45:59;6.27;;;5.67;;
787;SDS011;16074;42.708;23.312;2022-07-17T05:48:29;7.60;;;6.00;;
787;SDS011;16074;42.708;23.312;2022-07-17T05:50:58;5.93;;;5.43;;
787;SDS011;16074;42.708;23.312;2022-07-17T05:53:30;5.70;;;5.07;;
787;SDS011;16074;42.708;23.312;2022-07-17T05:55:58;5.50;;;5.20;;
787;SDS011;16074;42.708;23.312;2022-07-17T05:58:27;5.40;;;5.00;;
787;SDS011;16074;42.708;23.312;2022-07-17T06:00:56;5.50;;;5.20;;
787;SDS011;16074;42.708;23.312;2022-07-17T06:03:25;5.90;;;5.40;;
787;SDS011;16074;42.708;23.312;2022-07-17T06:05:53;7.00;;;6.50;;
787;SDS011;16074;42.708;23.312;2022-07-17T06:08:21;5.93;;;5.53;;
787;SDS011;16074;42.708;23.312;2022-07-17T06:10:49;6.37;;;5.93;;
787;SDS011;16074;42.708;23.312;2022-07-17T06:13:18;6.77;;;6.03;;
787;SDS011;16074;42.708;23.312;2022-07-17T06:15:46;6.50;;;6.00;;
787;SDS011;16074;42.708;23.312;2022-07-17T06:18:16;5.90;;;5.50;;
787;SDS011;16074;42.708;23.312;2022-07-17T06:20:44;5.80;;;5.50;;
787;SDS011;16074;42.708;23.312;2022-07-17T06:23:12;6.13;;;5.63;;
787;SDS011;16074;42.708;23.312;2022-07-17T06:25:41;6.63;;;6.23;;
787;SDS011;16074;42.708;23.312;2022-07-17T06:28:09;6.77;;;6.17;;
787;SDS011;16074;42.708;23.312;2022-07-17T06:30:37;12.10;;;5.87;;
787;SDS011;16074;42.708;23.312;2022-07-17T06:33:05;5.73;;;5.27;;
787;SDS011;16074;42.708;23.312;2022-07-17T06:35:35;6.27;;;5.77;;
787;SDS011;16074;42.708;23.312;2022-07-17T06:38:10;5.97;;;5.43;;
787;SDS011;16074;42.708;23.312;2022-07-17T06:40:39;5.00;;;4.70;;
787;SDS011;16074;42.708;23.312;2022-07-17T06:43:07;5.47;;;4.97;;
787;SDS011;16074;42.708;23.312;2022-07-17T06:45:35;6.07;;;5.67;;
787;SDS011;16074;42.708;23.312;2022-07-17T06:48:04;6.17;;;5.60;;
787;SDS011;16074;42.708;23.312;2022-07-17T06:50:32;6.30;;;5.80;;
787;SDS011;16074;42.708;23.312;2022-07-17T06:53:02;5.60;;;5.30;;
787;SDS011;16074;42.708;23.312;2022-07-17T06:55:30;6.50;;;5.90;;
787;SDS011;16074;42.708;23.312;2022-07-17T06:57:59;5.93;;;5.53;;
787;SDS011;16074;42.708;23.312;2022-07-17T07:00:27;5.13;;;4.83;;
787;SDS011;16074;42.708;23.312;2022-07-17T07:02:55;5.60;;;5.20;;
787;SDS011;16074;42.708;23.312;2022-07-17T07:05:23;6.50;;;6.00;;
787;SDS011;16074;42.708;23.312;2022-07-17T07:07:52;6.33;;;5.60;;
787;SDS011;16074;42.708;23.312;2022-07-17T07:10:21;5.70;;;5.37;;
787;SDS011;16074;42.708;23.312;2022-07-17T07:12:49;5.30;;;4.90;;
787;SDS011;16074;42.708;23.312;2022-07-17T07:15:18;5.50;;;5.10;;
787;SDS011;16074;42.708;23.312;2022-07-17T07:17:46;5.93;;;5.53;;
787;SDS011;16074;42.708;23.312;2022-07-17T07:20:14;6.00;;;5.47;;
787;SDS011;16074;42.708;23.312;2022-07-17T07:22:42;5.70;;;5.30;;
787;SDS011;16074;42.708;23.312;2022-07-17T07:25:11;5.60;;;5.23;;
787;SDS011;16074;42.708;23.312;2022-07-17T07:27:40;6.53;;;5.93;;
787;SDS011;16074;42.708;23.312;2022-07-17T07:30:09;5.53;;;5.13;;
787;SDS011;16074;42.708;23.312;2022-07-17T07:32:38;5.30;;;4.67;;
787;SDS011;16074;42.708;23.312;2022-07-17T07:35:07;5.80;;;5.40;;
787;SDS011;16074;42.708;23.312;2022-07-17T07:37:36;5.50;;;5.10;;
787;SDS011;16074;42.708;23.312;2022-07-17T07:40:06;5.33;;;4.93;;
787;SDS011;16074;42.708;23.312;2022-07-17T07:42:35;4.97;;;4.67;;
787;SDS011;16074;42.708;23.312;2022-07-17T07:45:05;6.00;;;5.60;;
787;SDS011;16074;42.708;23.312;2022-07-17T07:47:39;6.10;;;5.53;;
787;SDS011;16074;42.708;23.312;2022-07-17T07:50:09;5.80;;;5.30;;
787;SDS011;16074;42.708;23.312;2022-07-17T07:52:38;5.20;;;4.90;;
787;SDS011;16074;42.708;23.312;2022-07-17T07:55:07;4.73;;;4.53;;
787;SDS011;16074;42.708;23.312;2022-07-17T07:57:45;5.80;;;5.30;;
787;SDS011;16074;42.708;23.312;2022-07-17T08:00:15;6.10;;;5.60;;
787;SDS011;16074;42.708;23.312;2022-07-17T08:02:44;5.77;;;5.47;;
787;SDS011;16074;42.708;23.312;2022-07-17T08:05:13;5.27;;;4.77;;
787;SDS011;16074;42.708;23.312;2022-07-17T08:07:41;4.83;;;4.53;;
787;SDS011;16074;42.708;23.312;2022-07-17T08:10:09;6.10;;;5.57;;
787;SDS011;16074;42.708;23.312;2022-07-17T08:12:37;5.17;;;4.77;;
787;SDS011;16074;42.708;23.312;2022-07-17T08:15:14;5.67;;;5.17;;
787;SDS011;16074;42.708;23.312;2022-07-17T08:17:44;5.07;;;4.80;;
787;SDS011;16074;42.708;23.312;2022-07-17T08:20:13;5.30;;;4.90;;
787;SDS011;16074;42.708;23.312;2022-07-17T08:22:42;5.23;;;4.80;;
787;SDS011;16074;42.708;23.312;2022-07-17T08:25:30;5.33;;;5.03;;
787;SDS011;16074;42.708;23.312;2022-07-17T08:28:00;5.93;;;5.53;;
787;SDS011;16074;42.708;23.312;2022-07-17T08:30:30;4.97;;;4.67;;
787;SDS011;16074;42.708;23.312;2022-07-17T08:33:02;5.70;;;5.27;;
787;SDS011;16074;42.708;23.312;2022-07-17T08:35:31;4.93;;;4.63;;
787;SDS011;16074;42.708;23.312;2022-07-17T08:38:00;5.13;;;4.83;;
787;SDS011;16074;42.708;23.312;2022-07-17T08:40:29;5.60;;;5.00;;
787;SDS011;16074;42.708;23.312;2022-07-17T08:42:59;6.40;;;5.50;;
787;SDS011;16074;42.708;23.312;2022-07-17T08:45:30;4.53;;;4.33;;
787;SDS011;16074;42.708;23.312;2022-07-17T08:47:58;5.27;;;4.97;;
787;SDS011;16074;42.708;23.312;2022-07-17T08:50:28;5.77;;;5.37;;
787;SDS011;16074;42.708;23.312;2022-07-17T08:52:58;5.70;;;5.30;;
787;SDS011;16074;42.708;23.312;2022-07-17T08:55:27;4.50;;;4.30;;
787;SDS011;16074;42.708;23.312;2022-07-17T08:57:55;5.33;;;5.03;;
787;SDS011;16074;42.708;23.312;2022-07-17T09:00:24;5.30;;;5.00;;
787;SDS011;16074;42.708;23.312;2022-07-17T09:02:56;6.23;;;4.70;;
787;SDS011;16074;42.708;23.312;2022-07-17T09:05:28;5.43;;;5.13;;
787;SDS011;16074;42.708;23.312;2022-07-17T09:07:58;6.37;;;5.80;;
787;SDS011;16074;42.708;23.312;2022-07-17T09:10:34;5.30;;;5.00;;
787;SDS011;16074;42.708;23.312;2022-07-17T09:13:13;4.67;;;4.47;;
787;SDS011;16074;42.708;23.312;2022-07-17T09:15:46;4.80;;;4.60;;
787;SDS011;16074;42.708;23.312;2022-07-17T09:18:16;5.10;;;4.80;;
787;SDS011;16074;42.708;23.312;2022-07-17T09:20:46;5.43;;;5.13;;
787;SDS011;16074;42.708;23.312;2022-07-17T09:23:18;5.37;;;4.73;;
787;SDS011;16074;42.708;23.312;2022-07-17T09:25:48;5.27;;;4.97;;
787;SDS011;16074;42.708;23.312;2022-07-17T09:28:19;5.20;;;4.80;;
787;SDS011;16074;42.708;23.312;2022-07-17T09:30:49;5.13;;;4.87;;
787;SDS011;16074;42.708;23.312;2022-07-17T09:33:21;3.90;;;3.70;;
787;SDS011;16074;42.708;23.312;2022-07-17T09:35:52;5.23;;;4.83;;
787;SDS011;16074;42.708;23.312;2022-07-17T09:38:25;4.50;;;4.27;;
787;SDS011;16074;42.708;23.312;2022-07-17T09:41:02;4.43;;;4.23;;
787;SDS011;16074;42.708;23.312;2022-07-17T09:43:40;6.10;;;4.73;;
787;SDS011;16074;42.708;23.312;2022-07-17T09:46:13;4.90;;;4.70;;
787;SDS011;16074;42.708;23.312;2022-07-17T09:48:45;4.53;;;4.33;;
787;SDS011;16074;42.708;23.312;2022-07-17T09:51:16;4.43;;;4.13;;
787;SDS011;16074;42.708;23.312;2022-07-17T09:53:47;4.83;;;4.63;;
787;SDS011;16074;42.708;23.312;2022-07-17T09:56:17;4.50;;;4.20;;
787;SDS011;16074;42.708;23.312;2022-07-17T09:58:47;5.37;;;4.97;;
787;SDS011;16074;42.708;23.312;2022-07-17T10:01:17;5.07;;;4.60;;
787;SDS011;16074;42.708;23.312;2022-07-17T10:03:47;5.23;;;4.83;;
787;SDS011;16074;42.708;23.312;2022-07-17T10:06:19;4.50;;;4.13;;
787;SDS011;16074;42.708;23.312;2022-07-17T10:08:48;4.73;;;4.43;;
787;SDS011;16074;42.708;23.312;2022-07-17T10:11:18;4.83;;;4.63;;
787;SDS011;16074;42.708;23.312;2022-07-17T10:13:49;5.13;;;4.83;;
787;SDS011;16074;42.708;23.312;2022-07-17T10:16:23;4.20;;;4.07;;
787;SDS011;16074;42.708;23.312;2022-07-17T10:18:55;5.13;;;4.70;;
787;SDS011;16074;42.708;23.312;2022-07-17T10:21:25;5.50;;;5.00;;
787;SDS011;16074;42.708;23.312;2022-07-17T10:24:07;4.50;;;4.30;;
787;SDS011;16074;42.708;23.312;2022-07-17T10:26:41;6.70;;;4.37;;
787;SDS011;16074;42.708;23.312;2022-07-17T10:29:25;6.23;;;4.70;;
787;SDS011;16074;42.708;23.312;2022-07-17T10:31:56;4.80;;;4.60;;
787;SDS011;16074;42.708;23.312;2022-07-17T10:34:42;5.30;;;4.23;;
787;SDS011;16074;42.708;23.312;2022-07-17T10:37:22;4.13;;;3.93;;
787;SDS011;16074;42.708;23.312;2022-07-17T10:39:56;5.87;;;5.50;;
787;SDS011;16074;42.708;23.312;2022-07-17T10:45:15;5.00;;;4.80;;
787;SDS011;16074;42.708;23.312;2022-07-17T10:47:52;4.60;;;4.40;;
787;SDS011;16074;42.708;23.312;2022-07-17T10:50:25;4.57;;;4.37;;
787;SDS011;16074;42.708;23.312;2022-07-17T10:53:01;5.17;;;4.87;;
787;SDS011;16074;42.708;23.312;2022-07-17T10:55:35;5.23;;;3.97;;
787;SDS011;16074;42.708;23.312;2022-07-17T10:58:13;3.97;;;3.77;;
787;SDS011;16074;42.708;23.312;2022-07-17T11:00:58;4.10;;;3.87;;
787;SDS011;16074;42.708;23.312;2022-07-17T11:03:38;4.73;;;4.43;;
787;SDS011;16074;42.708;23.312;2022-07-17T11:06:14;4.97;;;4.57;;
787;SDS011;16074;42.708;23.312;2022-07-17T11:08:44;4.33;;;4.13;;
787;SDS011;16074;42.708;23.312;2022-07-17T11:11:15;5.23;;;4.93;;
787;SDS011;16074;42.708;23.312;2022-07-17T11:13:55;5.00;;;4.80;;
787;SDS011;16074;42.708;23.312;2022-07-17T11:16:35;5.63;;;4.80;;
787;SDS011;16074;42.708;23.312;2022-07-17T11:19:04;5.97;;;4.93;;
787;SDS011;16074;42.708;23.312;2022-07-17T11:21:34;4.40;;;4.20;;
787;SDS011;16074;42.708;23.312;2022-07-17T11:24:12;4.70;;;4.33;;
787;SDS011;16074;42.708;23.312;2022-07-17T11:26:41;4.60;;;4.40;;
787;SDS011;16074;42.708;23.312;2022-07-17T11:29:10;5.63;;;5.13;;
787;SDS011;16074;42.708;23.312;2022-07-17T11:31:38;5.47;;;5.13;;
787;SDS011;16074;42.708;23.312;2022-07-17T11:34:07;4.20;;;4.00;;
787;SDS011;16074;42.708;23.312;2022-07-17T11:36:39;4.40;;;4.20;;
787;SDS011;16074;42.708;23.312;2022-07-17T11:39:10;4.67;;;4.40;;
787;SDS011;16074;42.708;23.312;2022-07-17T11:41:40;5.07;;;4.67;;
787;SDS011;16074;42.708;23.312;2022-07-17T11:44:10;5.33;;;4.97;;
787;SDS011;16074;42.708;23.312;2022-07-17T11:46:41;5.70;;;5.20;;
787;SDS011;16074;42.708;23.312;2022-07-17T11:49:22;5.73;;;4.73;;
787;SDS011;16074;42.708;23.312;2022-07-17T11:51:54;5.73;;;4.63;;
787;SDS011;16074;42.708;23.312;2022-07-17T11:54:24;5.33;;;5.00;;
787;SDS011;16074;42.708;23.312;2022-07-17T11:56:54;4.93;;;4.73;;
787;SDS011;16074;42.708;23.312;2022-07-17T11:59:25;4.20;;;4.00;;
787;SDS011;16074;42.708;23.312;2022-07-17T12:01:54;4.50;;;4.30;;
787;SDS011;16074;42.708;23.312;2022-07-17T12:04:23;4.70;;;4.50;;
787;SDS011;16074;42.708;23.312;2022-07-17T12:06:59;4.90;;;4.50;;
787;SDS011;16074;42.708;23.312;2022-07-17T12:09:30;5.70;;;5.40;;
787;SDS011;16074;42.708;23.312;2022-07-17T12:12:01;4.43;;;4.23;;
787;SDS011;16074;42.708;23.312;2022-07-17T12:14:30;4.33;;;4.13;;
787;SDS011;16074;42.708;23.312;2022-07-17T12:17:02;4.97;;;4.77;;
787;SDS011;16074;42.708;23.312;2022-07-17T12:19:32;4.80;;;4.50;;
787;SDS011;16074;42.708;23.312;2022-07-17T12:22:02;4.77;;;4.57;;
787;SDS011;16074;42.708;23.312;2022-07-17T12:24:32;4.43;;;4.20;;
787;SDS011;16074;42.708;23.312;2022-07-17T12:27:05;4.93;;;4.70;;
787;SDS011;16074;42.708;23.312;2022-07-17T12:29:35;5.30;;;4.90;;
787;SDS011;16074;42.708;23.312;2022-07-17T12:32:05;4.50;;;4.30;;
787;SDS011;16074;42.708;23.312;2022-07-17T12:34:36;15.80;;;5.47;;
787;SDS011;16074;42.708;23.312;2022-07-17T12:37:13;5.60;;;5.20;;
787;SDS011;16074;42.708;23.312;2022-07-17T12:39:42;7.03;;;5.20;;
787;SDS011;16074;42.708;23.312;2022-07-17T12:42:11;5.60;;;5.20;;
787;SDS011;16074;42.708;23.312;2022-07-17T12:44:39;4.97;;;4.67;;
787;SDS011;16074;42.708;23.312;2022-07-17T12:47:08;5.50;;;5.20;;
787;SDS011;16074;42.708;23.312;2022-07-17T12:49:37;5.73;;;5.30;;
787;SDS011;16074;42.708;23.312;2022-07-17T12:52:07;6.17;;;5.23;;
787;SDS011;16074;42.708;23.312;2022-07-17T12:54:37;5.43;;;5.13;;
787;SDS011;16074;42.708;23.312;2022-07-17T12:57:07;6.23;;;5.07;;
787;SDS011;16074;42.708;23.312;2022-07-17T12:59:35;5.87;;;5.47;;
787;SDS011;16074;42.708;23.312;2022-07-17T13:02:03;6.37;;;6.00;;
787;SDS011;16074;42.708;23.312;2022-07-17T13:04:32;5.40;;;5.10;;
787;SDS011;16074;42.708;23.312;2022-07-17T13:07:02;6.43;;;5.87;;
787;SDS011;16074;42.708;23.312;2022-07-17T13:09:31;5.07;;;4.77;;
787;SDS011;16074;42.708;23.312;2022-07-17T13:12:00;5.60;;;5.30;;
787;SDS011;16074;42.708;23.312;2022-07-17T13:14:29;4.80;;;4.40;;
787;SDS011;16074;42.708;23.312;2022-07-17T13:16:57;5.20;;;5.00;;
787;SDS011;16074;42.708;23.312;2022-07-17T13:19:26;5.70;;;5.40;;
787;SDS011;16074;42.708;23.312;2022-07-17T13:21:55;4.40;;;4.10;;
787;SDS011;16074;42.708;23.312;2022-07-17T13:24:23;5.07;;;4.53;;
787;SDS011;16074;42.708;23.312;2022-07-17T13:26:51;5.90;;;5.00;;
787;SDS011;16074;42.708;23.312;2022-07-17T13:29:21;4.97;;;4.77;;
787;SDS011;16074;42.708;23.312;2022-07-17T13:31:50;4.73;;;4.60;;
787;SDS011;16074;42.708;23.312;2022-07-17T13:34:22;4.67;;;4.47;;
787;SDS011;16074;42.708;23.312;2022-07-17T13:36:50;5.23;;;4.93;;
787;SDS011;16074;42.708;23.312;2022-07-17T13:39:19;5.47;;;4.90;;
787;SDS011;16074;42.708;23.312;2022-07-17T13:41:48;5.20;;;4.90;;
787;SDS011;16074;42.708;23.312;2022-07-17T13:44:16;4.70;;;4.50;;
787;SDS011;16074;42.708;23.312;2022-07-17T13:46:46;5.20;;;4.90;;
787;SDS011;16074;42.708;23.312;2022-07-17T13:49:14;5.40;;;5.10;;
787;SDS011;16074;42.708;23.312;2022-07-17T13:51:44;4.50;;;4.30;;
787;SDS011;16074;42.708;23.312;2022-07-17T13:54:12;5.37;;;5.07;;
787;SDS011;16074;42.708;23.312;2022-07-17T13:56:40;5.40;;;5.20;;
787;SDS011;16074;42.708;23.312;2022-07-17T13:59:08;4.77;;;4.47;;
787;SDS011;16074;42.708;23.312;2022-07-17T14:01:36;5.70;;;5.40;;
787;SDS011;16074;42.708;23.312;2022-07-17T14:04:06;5.73;;;5.03;;
787;SDS011;16074;42.708;23.312;2022-07-17T14:06:35;5.30;;;4.90;;
787;SDS011;16074;42.708;23.312;2022-07-17T14:09:03;4.40;;;4.10;;
787;SDS011;16074;42.708;23.312;2022-07-17T14:11:31;5.83;;;4.23;;
787;SDS011;16074;42.708;23.312;2022-07-17T14:13:59;4.90;;;4.50;;
787;SDS011;16074;42.708;23.312;2022-07-17T14:16:28;7.80;;;5.40;;
787;SDS011;16074;42.708;23.312;2022-07-17T14:18:57;5.40;;;5.10;;
787;SDS011;16074;42.708;23.312;2022-07-17T14:21:27;6.37;;;4.93;;
787;SDS011;16074;42.708;23.312;2022-07-17T14:23:57;6.30;;;5.90;;
787;SDS011;16074;42.708;23.312;2022-07-17T14:26:28;5.20;;;5.00;;
787;SDS011;16074;42.708;23.312;2022-07-17T14:28:57;5.93;;;5.73;;
787;SDS011;16074;42.708;23.312;2022-07-17T14:31:26;6.87;;;6.37;;
787;SDS011;16074;42.708;23.312;2022-07-17T14:33:55;6.00;;;5.70;;
787;SDS011;16074;42.708;23.312;2022-07-17T14:36:24;7.37;;;6.40;;
787;SDS011;16074;42.708;23.312;2022-07-17T14:38:54;6.20;;;5.97;;
787;SDS011;16074;42.708;23.312;2022-07-17T14:41:22;6.77;;;6.37;;
787;SDS011;16074;42.708;23.312;2022-07-17T14:43:52;6.23;;;5.93;;
787;SDS011;16074;42.708;23.312;2022-07-17T14:46:21;5.93;;;5.63;;
787;SDS011;16074;42.708;23.312;2022-07-17T14:48:49;5.80;;;5.53;;
787;SDS011;16074;42.708;23.312;2022-07-17T14:51:18;7.90;;;7.40;;
787;SDS011;16074;42.708;23.312;2022-07-17T14:53:46;6.83;;;6.43;;
787;SDS011;16074;42.708;23.312;2022-07-17T14:56:16;9.00;;;8.50;;
787;SDS011;16074;42.708;23.312;2022-07-17T14:58:44;7.20;;;6.70;;
787;SDS011;16074;42.708;23.312;2022-07-17T15:01:13;6.97;;;6.50;;
787;SDS011;16074;42.708;23.312;2022-07-17T15:03:41;6.73;;;6.33;;
787;SDS011;16074;42.708;23.312;2022-07-17T15:06:11;7.50;;;7.10;;
787;SDS011;16074;42.708;23.312;2022-07-17T15:08:39;7.17;;;6.77;;
787;SDS011;16074;42.708;23.312;2022-07-17T15:11:08;6.70;;;6.37;;
787;SDS011;16074;42.708;23.312;2022-07-17T15:13:38;7.37;;;6.70;;
787;SDS011;16074;42.708;23.312;2022-07-17T15:16:07;6.90;;;6.50;;
787;SDS011;16074;42.708;23.312;2022-07-17T15:18:36;7.60;;;6.93;;